sensor_id;sensor_type;location;lat;lon;timestamp;P1;durP1;ratioP1;P2;durP2;ratioP2
5121;SDS011;2563;52.242;7.956;2023-06-26T00:01:29;14.53;;;9.80;;
5121;SDS011;2563;52.242;7.956;2023-06-26T00:03:56;16.70;;;10.37;;
5121;SDS011;2563;52.242;7.956;2023-06-26T00:06:22;14.50;;;9.33;;
5121;SDS011;2563;52.242;7.956;2023-06-26T00:08:51;16.70;;;9.57;;
5121;SDS011;2563;52.242;7.956;2023-06-26T00:11:20;15.93;;;10.27;;
5121;SDS011;2563;52.242;7.956;2023-06-26T00:13:47;15.50;;;9.33;;
5121;SDS011;2563;52.242;7.956;2023-06-26T00:16:12;13.37;;;8.80;;
5121;SDS011;2563;52.242;7.956;2023-06-26T00:18:38;12.83;;;9.73;;
5121;SDS011;2563;52.242;7.956;2023-06-26T00:21:03;15.03;;;9.10;;
5121;SDS011;2563;52.242;7.956;2023-06-26T00:23:29;26.00;;;10.77;;
5121;SDS011;2563;52.242;7.956;2023-06-26T00:25:56;17.03;;;9.43;;
5121;SDS011;2563;52.242;7.956;2023-06-26T00:28:21;14.40;;;9.90;;
5121;SDS011;2563;52.242;7.956;2023-06-26T00:30:46;14.10;;;10.00;;
5121;SDS011;2563;52.242;7.956;2023-06-26T00:33:12;13.53;;;9.00;;
5121;SDS011;2563;52.242;7.956;2023-06-26T00:35:37;14.10;;;9.47;;
5121;SDS011;2563;52.242;7.956;2023-06-26T00:38:02;14.37;;;8.53;;
5121;SDS011;2563;52.242;7.956;2023-06-26T00:40:28;11.53;;;8.20;;
5121;SDS011;2563;52.242;7.956;2023-06-26T00:42:53;14.13;;;9.90;;
5121;SDS011;2563;52.242;7.956;2023-06-26T00:45:19;12.37;;;8.90;;
5121;SDS011;2563;52.242;7.956;2023-06-26T00:47:44;14.80;;;9.27;;
5121;SDS011;2563;52.242;7.956;2023-06-26T00:50:10;14.57;;;9.07;;
5121;SDS011;2563;52.242;7.956;2023-06-26T00:52:36;20.27;;;10.67;;
5121;SDS011;2563;52.242;7.956;2023-06-26T00:55:01;13.73;;;9.00;;
5121;SDS011;2563;52.242;7.956;2023-06-26T00:57:27;13.47;;;8.67;;
5121;SDS011;2563;52.242;7.956;2023-06-26T00:59:52;15.47;;;8.67;;
5121;SDS011;2563;52.242;7.956;2023-06-26T01:02:18;14.77;;;9.10;;
5121;SDS011;2563;52.242;7.956;2023-06-26T01:04:45;12.20;;;8.57;;
5121;SDS011;2563;52.242;7.956;2023-06-26T01:07:17;13.27;;;9.00;;
5121;SDS011;2563;52.242;7.956;2023-06-26T01:09:46;11.60;;;8.70;;
5121;SDS011;2563;52.242;7.956;2023-06-26T01:12:12;17.13;;;9.10;;
5121;SDS011;2563;52.242;7.956;2023-06-26T01:14:38;16.80;;;9.37;;
5121;SDS011;2563;52.242;7.956;2023-06-26T01:17:03;13.63;;;8.93;;
5121;SDS011;2563;52.242;7.956;2023-06-26T01:19:30;12.37;;;8.33;;
5121;SDS011;2563;52.242;7.956;2023-06-26T01:28:03;13.23;;;8.60;;
5121;SDS011;2563;52.242;7.956;2023-06-26T01:30:30;14.63;;;9.50;;
5121;SDS011;2563;52.242;7.956;2023-06-26T01:32:57;12.90;;;9.10;;
5121;SDS011;2563;52.242;7.956;2023-06-26T01:35:23;14.83;;;9.63;;
5121;SDS011;2563;52.242;7.956;2023-06-26T01:37:50;13.00;;;9.23;;
5121;SDS011;2563;52.242;7.956;2023-06-26T01:40:15;13.40;;;9.30;;
5121;SDS011;2563;52.242;7.956;2023-06-26T01:42:40;20.03;;;9.93;;
5121;SDS011;2563;52.242;7.956;2023-06-26T01:45:21;15.13;;;9.77;;
5121;SDS011;2563;52.242;7.956;2023-06-26T01:47:52;12.63;;;9.27;;
5121;SDS011;2563;52.242;7.956;2023-06-26T01:50:25;15.00;;;9.80;;
5121;SDS011;2563;52.242;7.956;2023-06-26T01:55:51;13.40;;;8.53;;
5121;SDS011;2563;52.242;7.956;2023-06-26T01:58:22;13.10;;;8.70;;
5121;SDS011;2563;52.242;7.956;2023-06-26T02:00:50;12.90;;;8.10;;
5121;SDS011;2563;52.242;7.956;2023-06-26T02:03:15;14.20;;;8.57;;
5121;SDS011;2563;52.242;7.956;2023-06-26T02:05:41;12.80;;;8.30;;
5121;SDS011;2563;52.242;7.956;2023-06-26T02:08:08;12.77;;;8.67;;
5121;SDS011;2563;52.242;7.956;2023-06-26T02:10:33;12.10;;;8.00;;
5121;SDS011;2563;52.242;7.956;2023-06-26T02:13:00;11.23;;;7.30;;
5121;SDS011;2563;52.242;7.956;2023-06-26T02:15:25;13.60;;;7.37;;
5121;SDS011;2563;52.242;7.956;2023-06-26T02:17:51;10.73;;;7.57;;
5121;SDS011;2563;52.242;7.956;2023-06-26T02:20:16;10.73;;;7.60;;
5121;SDS011;2563;52.242;7.956;2023-06-26T02:22:41;10.63;;;7.50;;
5121;SDS011;2563;52.242;7.956;2023-06-26T02:25:07;17.70;;;7.40;;
5121;SDS011;2563;52.242;7.956;2023-06-26T02:27:33;12.67;;;7.03;;
5121;SDS011;2563;52.242;7.956;2023-06-26T02:29:59;13.03;;;8.00;;
5121;SDS011;2563;52.242;7.956;2023-06-26T02:32:24;11.30;;;7.27;;
5121;SDS011;2563;52.242;7.956;2023-06-26T02:34:49;9.80;;;6.70;;
5121;SDS011;2563;52.242;7.956;2023-06-26T02:37:16;11.37;;;7.27;;
5121;SDS011;2563;52.242;7.956;2023-06-26T02:39:42;13.40;;;7.47;;
5121;SDS011;2563;52.242;7.956;2023-06-26T02:42:08;10.23;;;6.80;;
5121;SDS011;2563;52.242;7.956;2023-06-26T02:44:33;9.53;;;6.80;;
5121;SDS011;2563;52.242;7.956;2023-06-26T02:46:58;10.90;;;7.13;;
5121;SDS011;2563;52.242;7.956;2023-06-26T02:49:24;13.13;;;7.73;;
5121;SDS011;2563;52.242;7.956;2023-06-26T02:51:49;10.97;;;7.60;;
5121;SDS011;2563;52.242;7.956;2023-06-26T02:54:14;15.03;;;8.20;;
5121;SDS011;2563;52.242;7.956;2023-06-26T02:56:40;11.03;;;6.83;;
5121;SDS011;2563;52.242;7.956;2023-06-26T02:59:05;10.23;;;7.40;;
5121;SDS011;2563;52.242;7.956;2023-06-26T03:01:30;16.03;;;8.20;;
5121;SDS011;2563;52.242;7.956;2023-06-26T03:03:56;15.00;;;7.93;;
5121;SDS011;2563;52.242;7.956;2023-06-26T03:06:21;17.50;;;7.87;;
5121;SDS011;2563;52.242;7.956;2023-06-26T03:08:46;13.60;;;7.90;;
5121;SDS011;2563;52.242;7.956;2023-06-26T03:11:12;12.87;;;7.00;;
5121;SDS011;2563;52.242;7.956;2023-06-26T03:13:37;13.10;;;7.57;;
5121;SDS011;2563;52.242;7.956;2023-06-26T03:16:03;11.60;;;7.20;;
5121;SDS011;2563;52.242;7.956;2023-06-26T03:18:28;10.90;;;7.40;;
5121;SDS011;2563;52.242;7.956;2023-06-26T03:20:57;9.63;;;7.37;;
5121;SDS011;2563;52.242;7.956;2023-06-26T03:23:22;11.77;;;7.93;;
5121;SDS011;2563;52.242;7.956;2023-06-26T03:25:49;13.60;;;7.77;;
5121;SDS011;2563;52.242;7.956;2023-06-26T03:28:15;9.50;;;7.27;;
5121;SDS011;2563;52.242;7.956;2023-06-26T03:30:40;10.80;;;7.20;;
5121;SDS011;2563;52.242;7.956;2023-06-26T03:33:05;11.77;;;7.30;;
5121;SDS011;2563;52.242;7.956;2023-06-26T03:35:31;10.03;;;6.80;;
5121;SDS011;2563;52.242;7.956;2023-06-26T03:37:57;12.57;;;7.70;;
5121;SDS011;2563;52.242;7.956;2023-06-26T03:40:23;13.87;;;7.87;;
5121;SDS011;2563;52.242;7.956;2023-06-26T03:42:48;15.60;;;8.20;;
5121;SDS011;2563;52.242;7.956;2023-06-26T03:45:14;13.30;;;7.60;;
5121;SDS011;2563;52.242;7.956;2023-06-26T03:47:39;11.07;;;7.40;;
5121;SDS011;2563;52.242;7.956;2023-06-26T03:50:05;13.20;;;8.07;;
5121;SDS011;2563;52.242;7.956;2023-06-26T03:52:30;14.17;;;6.77;;
5121;SDS011;2563;52.242;7.956;2023-06-26T03:54:59;13.20;;;7.50;;
5121;SDS011;2563;52.242;7.956;2023-06-26T03:57:24;12.80;;;7.20;;
5121;SDS011;2563;52.242;7.956;2023-06-26T03:59:50;10.73;;;6.93;;
5121;SDS011;2563;52.242;7.956;2023-06-26T04:02:16;12.77;;;7.80;;
5121;SDS011;2563;52.242;7.956;2023-06-26T04:04:42;10.13;;;7.50;;
5121;SDS011;2563;52.242;7.956;2023-06-26T04:07:07;10.87;;;7.37;;
5121;SDS011;2563;52.242;7.956;2023-06-26T04:09:33;14.90;;;7.40;;
5121;SDS011;2563;52.242;7.956;2023-06-26T04:11:58;10.43;;;7.10;;
5121;SDS011;2563;52.242;7.956;2023-06-26T04:14:23;10.80;;;7.10;;
5121;SDS011;2563;52.242;7.956;2023-06-26T04:16:49;11.40;;;7.60;;
5121;SDS011;2563;52.242;7.956;2023-06-26T04:19:14;11.13;;;7.13;;
5121;SDS011;2563;52.242;7.956;2023-06-26T04:21:40;11.97;;;7.43;;
5121;SDS011;2563;52.242;7.956;2023-06-26T04:24:05;12.43;;;7.50;;
5121;SDS011;2563;52.242;7.956;2023-06-26T04:26:30;13.33;;;7.80;;
5121;SDS011;2563;52.242;7.956;2023-06-26T04:28:56;12.10;;;7.30;;
5121;SDS011;2563;52.242;7.956;2023-06-26T04:31:21;13.03;;;7.30;;
5121;SDS011;2563;52.242;7.956;2023-06-26T04:33:47;11.50;;;7.40;;
5121;SDS011;2563;52.242;7.956;2023-06-26T04:36:16;12.13;;;7.53;;
5121;SDS011;2563;52.242;7.956;2023-06-26T04:38:42;11.80;;;6.60;;
5121;SDS011;2563;52.242;7.956;2023-06-26T04:41:07;11.53;;;7.57;;
5121;SDS011;2563;52.242;7.956;2023-06-26T04:43:33;11.80;;;7.30;;
5121;SDS011;2563;52.242;7.956;2023-06-26T04:45:58;10.30;;;7.17;;
5121;SDS011;2563;52.242;7.956;2023-06-26T04:48:23;16.93;;;7.60;;
5121;SDS011;2563;52.242;7.956;2023-06-26T04:50:49;14.93;;;7.90;;
5121;SDS011;2563;52.242;7.956;2023-06-26T04:53:19;10.50;;;7.83;;
5121;SDS011;2563;52.242;7.956;2023-06-26T04:55:46;16.63;;;7.97;;
5121;SDS011;2563;52.242;7.956;2023-06-26T04:58:11;16.10;;;7.30;;
5121;SDS011;2563;52.242;7.956;2023-06-26T05:00:37;11.50;;;7.53;;
5121;SDS011;2563;52.242;7.956;2023-06-26T05:03:02;14.73;;;7.50;;
5121;SDS011;2563;52.242;7.956;2023-06-26T05:05:28;11.97;;;7.43;;
5121;SDS011;2563;52.242;7.956;2023-06-26T05:07:54;14.53;;;7.77;;
5121;SDS011;2563;52.242;7.956;2023-06-26T05:10:20;13.67;;;8.03;;
5121;SDS011;2563;52.242;7.956;2023-06-26T05:12:46;14.30;;;8.20;;
5121;SDS011;2563;52.242;7.956;2023-06-26T05:15:11;13.63;;;8.30;;
5121;SDS011;2563;52.242;7.956;2023-06-26T05:17:36;11.50;;;7.97;;
5121;SDS011;2563;52.242;7.956;2023-06-26T05:20:02;12.50;;;8.20;;
5121;SDS011;2563;52.242;7.956;2023-06-26T05:22:28;15.30;;;9.07;;
5121;SDS011;2563;52.242;7.956;2023-06-26T05:24:54;18.90;;;8.80;;
5121;SDS011;2563;52.242;7.956;2023-06-26T05:27:24;14.90;;;9.20;;
5121;SDS011;2563;52.242;7.956;2023-06-26T05:29:50;12.47;;;8.90;;
5121;SDS011;2563;52.242;7.956;2023-06-26T05:32:16;17.10;;;9.33;;
5121;SDS011;2563;52.242;7.956;2023-06-26T05:34:47;15.90;;;10.00;;
5121;SDS011;2563;52.242;7.956;2023-06-26T05:37:18;15.80;;;10.00;;
5121;SDS011;2563;52.242;7.956;2023-06-26T05:39:46;13.80;;;9.37;;
5121;SDS011;2563;52.242;7.956;2023-06-26T05:42:12;13.77;;;9.23;;
5121;SDS011;2563;52.242;7.956;2023-06-26T05:44:38;13.10;;;9.67;;
5121;SDS011;2563;52.242;7.956;2023-06-26T05:47:03;13.17;;;9.50;;
5121;SDS011;2563;52.242;7.956;2023-06-26T05:49:29;15.07;;;10.53;;
5121;SDS011;2563;52.242;7.956;2023-06-26T05:51:54;16.07;;;10.27;;
5121;SDS011;2563;52.242;7.956;2023-06-26T05:54:20;21.20;;;10.03;;
5121;SDS011;2563;52.242;7.956;2023-06-26T05:56:46;15.10;;;10.33;;
5121;SDS011;2563;52.242;7.956;2023-06-26T05:59:13;15.80;;;10.47;;
5121;SDS011;2563;52.242;7.956;2023-06-26T06:01:40;14.37;;;10.57;;
5121;SDS011;2563;52.242;7.956;2023-06-26T06:04:06;15.27;;;10.40;;
5121;SDS011;2563;52.242;7.956;2023-06-26T06:06:32;15.00;;;10.30;;
5121;SDS011;2563;52.242;7.956;2023-06-26T06:08:57;16.03;;;11.43;;
5121;SDS011;2563;52.242;7.956;2023-06-26T06:11:22;19.60;;;11.30;;
5121;SDS011;2563;52.242;7.956;2023-06-26T06:13:48;15.40;;;10.77;;
5121;SDS011;2563;52.242;7.956;2023-06-26T06:16:13;16.67;;;10.83;;
5121;SDS011;2563;52.242;7.956;2023-06-26T06:18:39;16.23;;;10.40;;
5121;SDS011;2563;52.242;7.956;2023-06-26T06:21:04;16.47;;;11.93;;
5121;SDS011;2563;52.242;7.956;2023-06-26T06:23:29;16.00;;;11.40;;
5121;SDS011;2563;52.242;7.956;2023-06-26T06:25:55;13.27;;;9.97;;
5121;SDS011;2563;52.242;7.956;2023-06-26T06:28:20;18.30;;;11.23;;
5121;SDS011;2563;52.242;7.956;2023-06-26T06:30:45;16.10;;;10.80;;
5121;SDS011;2563;52.242;7.956;2023-06-26T06:33:12;14.90;;;10.40;;
5121;SDS011;2563;52.242;7.956;2023-06-26T06:35:38;14.17;;;10.77;;
5121;SDS011;2563;52.242;7.956;2023-06-26T06:38:04;14.70;;;10.60;;
5121;SDS011;2563;52.242;7.956;2023-06-26T06:40:29;20.20;;;11.30;;
5121;SDS011;2563;52.242;7.956;2023-06-26T06:42:55;14.33;;;9.80;;
5121;SDS011;2563;52.242;7.956;2023-06-26T06:45:20;11.53;;;8.93;;
5121;SDS011;2563;52.242;7.956;2023-06-26T06:47:45;13.70;;;10.00;;
5121;SDS011;2563;52.242;7.956;2023-06-26T06:50:11;21.77;;;10.03;;
5121;SDS011;2563;52.242;7.956;2023-06-26T06:52:37;13.90;;;9.57;;
5121;SDS011;2563;52.242;7.956;2023-06-26T06:55:03;15.00;;;10.73;;
5121;SDS011;2563;52.242;7.956;2023-06-26T06:57:31;13.53;;;10.13;;
5121;SDS011;2563;52.242;7.956;2023-06-26T07:00:01;17.37;;;10.60;;
5121;SDS011;2563;52.242;7.956;2023-06-26T07:02:29;14.30;;;9.90;;
5121;SDS011;2563;52.242;7.956;2023-06-26T07:04:54;11.40;;;8.30;;
5121;SDS011;2563;52.242;7.956;2023-06-26T07:07:20;17.83;;;10.10;;
5121;SDS011;2563;52.242;7.956;2023-06-26T07:09:45;12.60;;;9.60;;
5121;SDS011;2563;52.242;7.956;2023-06-26T07:12:11;12.60;;;8.90;;
5121;SDS011;2563;52.242;7.956;2023-06-26T07:14:36;15.30;;;8.83;;
5121;SDS011;2563;52.242;7.956;2023-06-26T07:17:01;13.80;;;9.10;;
5121;SDS011;2563;52.242;7.956;2023-06-26T07:19:27;13.90;;;9.80;;
5121;SDS011;2563;52.242;7.956;2023-06-26T07:21:52;17.43;;;9.30;;
5121;SDS011;2563;52.242;7.956;2023-06-26T07:24:17;11.20;;;8.40;;
5121;SDS011;2563;52.242;7.956;2023-06-26T07:26:43;14.93;;;9.13;;
5121;SDS011;2563;52.242;7.956;2023-06-26T07:29:08;13.70;;;8.20;;
5121;SDS011;2563;52.242;7.956;2023-06-26T07:31:34;20.67;;;7.90;;
5121;SDS011;2563;52.242;7.956;2023-06-26T07:33:59;11.23;;;8.03;;
5121;SDS011;2563;52.242;7.956;2023-06-26T07:36:24;10.80;;;7.30;;
5121;SDS011;2563;52.242;7.956;2023-06-26T07:38:50;14.83;;;6.73;;
5121;SDS011;2563;52.242;7.956;2023-06-26T07:41:15;10.60;;;7.17;;
5121;SDS011;2563;52.242;7.956;2023-06-26T07:43:40;15.20;;;7.90;;
5121;SDS011;2563;52.242;7.956;2023-06-26T07:46:06;13.37;;;6.57;;
5121;SDS011;2563;52.242;7.956;2023-06-26T07:48:31;13.23;;;6.60;;
5121;SDS011;2563;52.242;7.956;2023-06-26T07:50:56;14.87;;;6.20;;
5121;SDS011;2563;52.242;7.956;2023-06-26T07:53:22;12.47;;;6.33;;
5121;SDS011;2563;52.242;7.956;2023-06-26T07:55:47;9.37;;;6.67;;
5121;SDS011;2563;52.242;7.956;2023-06-26T07:58:13;16.83;;;6.70;;
5121;SDS011;2563;52.242;7.956;2023-06-26T08:00:38;15.87;;;6.10;;
5121;SDS011;2563;52.242;7.956;2023-06-26T08:03:03;11.73;;;6.60;;
5121;SDS011;2563;52.242;7.956;2023-06-26T08:05:29;8.90;;;5.73;;
5121;SDS011;2563;52.242;7.956;2023-06-26T08:07:54;10.37;;;6.07;;
5121;SDS011;2563;52.242;7.956;2023-06-26T08:10:20;12.63;;;5.50;;
5121;SDS011;2563;52.242;7.956;2023-06-26T08:12:45;11.47;;;6.30;;
5121;SDS011;2563;52.242;7.956;2023-06-26T08:15:12;15.20;;;6.07;;
5121;SDS011;2563;52.242;7.956;2023-06-26T08:17:37;9.47;;;5.47;;
5121;SDS011;2563;52.242;7.956;2023-06-26T08:20:03;7.03;;;4.67;;
5121;SDS011;2563;52.242;7.956;2023-06-26T08:22:30;10.00;;;5.53;;
5121;SDS011;2563;52.242;7.956;2023-06-26T08:24:55;46.20;;;6.40;;
5121;SDS011;2563;52.242;7.956;2023-06-26T08:27:21;10.30;;;5.80;;
5121;SDS011;2563;52.242;7.956;2023-06-26T08:29:46;15.63;;;5.90;;
5121;SDS011;2563;52.242;7.956;2023-06-26T08:32:12;15.23;;;5.70;;
5121;SDS011;2563;52.242;7.956;2023-06-26T08:34:37;14.03;;;5.57;;
5121;SDS011;2563;52.242;7.956;2023-06-26T08:37:03;10.93;;;5.80;;
5121;SDS011;2563;52.242;7.956;2023-06-26T08:39:28;9.20;;;4.93;;
5121;SDS011;2563;52.242;7.956;2023-06-26T08:41:54;14.27;;;6.60;;
5121;SDS011;2563;52.242;7.956;2023-06-26T08:44:20;10.43;;;5.00;;
5121;SDS011;2563;52.242;7.956;2023-06-26T08:46:49;10.77;;;5.97;;
5121;SDS011;2563;52.242;7.956;2023-06-26T08:49:28;9.63;;;5.37;;
5121;SDS011;2563;52.242;7.956;2023-06-26T08:52:23;11.10;;;5.80;;
5121;SDS011;2563;52.242;7.956;2023-06-26T08:54:53;10.87;;;6.33;;
5121;SDS011;2563;52.242;7.956;2023-06-26T08:57:21;9.80;;;5.53;;
5121;SDS011;2563;52.242;7.956;2023-06-26T08:59:48;12.47;;;6.20;;
5121;SDS011;2563;52.242;7.956;2023-06-26T09:02:14;9.40;;;5.63;;
5121;SDS011;2563;52.242;7.956;2023-06-26T09:04:40;7.70;;;5.20;;
5121;SDS011;2563;52.242;7.956;2023-06-26T09:07:06;10.17;;;5.40;;
5121;SDS011;2563;52.242;7.956;2023-06-26T09:09:32;10.77;;;5.43;;
5121;SDS011;2563;52.242;7.956;2023-06-26T09:11:58;11.53;;;5.90;;
5121;SDS011;2563;52.242;7.956;2023-06-26T09:14:23;17.30;;;7.93;;
5121;SDS011;2563;52.242;7.956;2023-06-26T09:16:49;9.97;;;6.10;;
5121;SDS011;2563;52.242;7.956;2023-06-26T09:19:15;9.30;;;5.10;;
5121;SDS011;2563;52.242;7.956;2023-06-26T09:21:41;11.47;;;5.07;;
5121;SDS011;2563;52.242;7.956;2023-06-26T09:24:07;8.53;;;5.13;;
5121;SDS011;2563;52.242;7.956;2023-06-26T09:26:39;12.13;;;5.30;;
5121;SDS011;2563;52.242;7.956;2023-06-26T09:29:05;16.07;;;6.20;;
5121;SDS011;2563;52.242;7.956;2023-06-26T09:31:32;10.50;;;4.93;;
5121;SDS011;2563;52.242;7.956;2023-06-26T09:33:59;10.80;;;4.87;;
5121;SDS011;2563;52.242;7.956;2023-06-26T09:36:27;11.00;;;5.37;;
5121;SDS011;2563;52.242;7.956;2023-06-26T09:38:54;8.77;;;4.63;;
5121;SDS011;2563;52.242;7.956;2023-06-26T09:41:20;9.27;;;4.93;;
5121;SDS011;2563;52.242;7.956;2023-06-26T09:43:46;7.37;;;4.10;;
5121;SDS011;2563;52.242;7.956;2023-06-26T09:46:24;11.07;;;4.50;;
5121;SDS011;2563;52.242;7.956;2023-06-26T09:49:04;8.40;;;4.50;;
5121;SDS011;2563;52.242;7.956;2023-06-26T09:51:31;11.93;;;3.87;;
5121;SDS011;2563;52.242;7.956;2023-06-26T09:53:58;7.40;;;4.00;;
5121;SDS011;2563;52.242;7.956;2023-06-26T09:56:27;6.30;;;3.97;;
5121;SDS011;2563;52.242;7.956;2023-06-26T09:58:56;6.20;;;3.00;;
5121;SDS011;2563;52.242;7.956;2023-06-26T10:01:23;8.27;;;3.50;;
5121;SDS011;2563;52.242;7.956;2023-06-26T10:03:49;8.00;;;3.57;;
5121;SDS011;2563;52.242;7.956;2023-06-26T10:06:15;4.40;;;2.83;;
5121;SDS011;2563;52.242;7.956;2023-06-26T10:08:44;6.13;;;3.30;;
5121;SDS011;2563;52.242;7.956;2023-06-26T10:11:11;6.43;;;3.50;;
5121;SDS011;2563;52.242;7.956;2023-06-26T10:13:42;8.83;;;2.70;;
5121;SDS011;2563;52.242;7.956;2023-06-26T10:16:11;4.90;;;2.80;;
5121;SDS011;2563;52.242;7.956;2023-06-26T10:18:37;6.60;;;2.50;;
5121;SDS011;2563;52.242;7.956;2023-06-26T10:21:04;4.10;;;2.60;;
5121;SDS011;2563;52.242;7.956;2023-06-26T10:23:31;6.90;;;2.70;;
5121;SDS011;2563;52.242;7.956;2023-06-26T10:25:58;3.70;;;2.43;;
5121;SDS011;2563;52.242;7.956;2023-06-26T10:28:26;5.47;;;2.50;;
5121;SDS011;2563;52.242;7.956;2023-06-26T10:30:55;8.60;;;3.17;;
5121;SDS011;2563;52.242;7.956;2023-06-26T10:33:23;6.87;;;2.83;;
5121;SDS011;2563;52.242;7.956;2023-06-26T10:35:49;4.90;;;2.60;;
5121;SDS011;2563;52.242;7.956;2023-06-26T10:38:15;5.43;;;2.67;;
5121;SDS011;2563;52.242;7.956;2023-06-26T10:40:44;3.93;;;2.27;;
5121;SDS011;2563;52.242;7.956;2023-06-26T10:43:14;7.80;;;3.00;;
5121;SDS011;2563;52.242;7.956;2023-06-26T10:45:47;4.23;;;2.47;;
5121;SDS011;2563;52.242;7.956;2023-06-26T10:48:18;6.90;;;2.70;;
5121;SDS011;2563;52.242;7.956;2023-06-26T10:50:46;5.80;;;2.53;;
5121;SDS011;2563;52.242;7.956;2023-06-26T10:55:50;5.67;;;2.97;;
5121;SDS011;2563;52.242;7.956;2023-06-26T10:58:39;4.07;;;3.03;;
5121;SDS011;2563;52.242;7.956;2023-06-26T11:01:25;4.60;;;2.60;;
5121;SDS011;2563;52.242;7.956;2023-06-26T11:06:22;7.37;;;2.93;;
5121;SDS011;2563;52.242;7.956;2023-06-26T11:08:51;5.53;;;2.90;;
5121;SDS011;2563;52.242;7.956;2023-06-26T11:12:09;4.60;;;2.27;;
5121;SDS011;2563;52.242;7.956;2023-06-26T11:14:19;5.57;;;3.03;;
5121;SDS011;2563;52.242;7.956;2023-06-26T11:16:46;4.43;;;2.90;;
5121;SDS011;2563;52.242;7.956;2023-06-26T11:19:13;5.80;;;2.50;;
5121;SDS011;2563;52.242;7.956;2023-06-26T11:21:39;4.53;;;2.60;;
5121;SDS011;2563;52.242;7.956;2023-06-26T11:24:08;4.80;;;2.93;;
5121;SDS011;2563;52.242;7.956;2023-06-26T11:26:38;3.30;;;2.30;;
5121;SDS011;2563;52.242;7.956;2023-06-26T11:29:04;5.53;;;3.63;;
5121;SDS011;2563;52.242;7.956;2023-06-26T11:31:31;5.10;;;2.67;;
5121;SDS011;2563;52.242;7.956;2023-06-26T11:33:59;8.43;;;3.20;;
5121;SDS011;2563;52.242;7.956;2023-06-26T11:36:29;5.23;;;3.07;;
5121;SDS011;2563;52.242;7.956;2023-06-26T11:39:01;5.07;;;2.73;;
5121;SDS011;2563;52.242;7.956;2023-06-26T11:41:30;4.30;;;3.13;;
5121;SDS011;2563;52.242;7.956;2023-06-26T11:44:00;6.53;;;2.67;;
5121;SDS011;2563;52.242;7.956;2023-06-26T11:46:35;4.57;;;2.77;;
5121;SDS011;2563;52.242;7.956;2023-06-26T11:49:07;6.13;;;2.77;;
5121;SDS011;2563;52.242;7.956;2023-06-26T11:51:35;7.20;;;2.77;;
5121;SDS011;2563;52.242;7.956;2023-06-26T11:54:03;6.90;;;2.63;;
5121;SDS011;2563;52.242;7.956;2023-06-26T11:56:29;4.97;;;3.23;;
5121;SDS011;2563;52.242;7.956;2023-06-26T11:58:55;6.83;;;2.90;;
5121;SDS011;2563;52.242;7.956;2023-06-26T12:01:22;5.13;;;2.90;;
5121;SDS011;2563;52.242;7.956;2023-06-26T12:03:48;8.20;;;3.40;;
5121;SDS011;2563;52.242;7.956;2023-06-26T12:06:14;3.77;;;2.47;;
5121;SDS011;2563;52.242;7.956;2023-06-26T12:08:40;3.53;;;2.23;;
5121;SDS011;2563;52.242;7.956;2023-06-26T12:11:06;5.00;;;2.53;;
5121;SDS011;2563;52.242;7.956;2023-06-26T12:13:31;11.83;;;3.30;;
5121;SDS011;2563;52.242;7.956;2023-06-26T12:15:57;3.50;;;2.47;;
5121;SDS011;2563;52.242;7.956;2023-06-26T12:18:22;5.87;;;3.13;;
5121;SDS011;2563;52.242;7.956;2023-06-26T12:20:50;7.20;;;2.73;;
5121;SDS011;2563;52.242;7.956;2023-06-26T12:23:16;4.97;;;2.97;;
5121;SDS011;2563;52.242;7.956;2023-06-26T12:25:42;6.67;;;3.03;;
5121;SDS011;2563;52.242;7.956;2023-06-26T12:28:15;10.33;;;2.77;;
5121;SDS011;2563;52.242;7.956;2023-06-26T12:30:46;7.70;;;3.00;;
5121;SDS011;2563;52.242;7.956;2023-06-26T12:33:14;14.10;;;2.90;;
5121;SDS011;2563;52.242;7.956;2023-06-26T12:35:40;5.83;;;3.00;;
5121;SDS011;2563;52.242;7.956;2023-06-26T12:38:08;4.53;;;2.67;;
5121;SDS011;2563;52.242;7.956;2023-06-26T12:40:36;3.60;;;2.50;;
5121;SDS011;2563;52.242;7.956;2023-06-26T12:43:22;9.80;;;3.20;;
5121;SDS011;2563;52.242;7.956;2023-06-26T12:45:48;5.30;;;2.70;;
5121;SDS011;2563;52.242;7.956;2023-06-26T12:48:18;9.40;;;2.53;;
5121;SDS011;2563;52.242;7.956;2023-06-26T12:50:45;4.40;;;2.73;;
5121;SDS011;2563;52.242;7.956;2023-06-26T12:53:10;7.03;;;2.40;;
5121;SDS011;2563;52.242;7.956;2023-06-26T12:55:36;5.50;;;2.57;;
5121;SDS011;2563;52.242;7.956;2023-06-26T12:58:01;4.20;;;2.50;;
5121;SDS011;2563;52.242;7.956;2023-06-26T13:00:27;9.37;;;2.90;;
5121;SDS011;2563;52.242;7.956;2023-06-26T13:02:52;5.87;;;3.17;;
5121;SDS011;2563;52.242;7.956;2023-06-26T13:05:18;8.67;;;3.50;;
5121;SDS011;2563;52.242;7.956;2023-06-26T13:07:43;6.53;;;2.80;;
5121;SDS011;2563;52.242;7.956;2023-06-26T13:10:08;4.47;;;2.80;;
5121;SDS011;2563;52.242;7.956;2023-06-26T13:12:34;4.93;;;2.80;;
5121;SDS011;2563;52.242;7.956;2023-06-26T13:14:59;9.00;;;3.33;;
5121;SDS011;2563;52.242;7.956;2023-06-26T13:17:25;5.10;;;1.90;;
5121;SDS011;2563;52.242;7.956;2023-06-26T13:19:50;4.57;;;3.00;;
5121;SDS011;2563;52.242;7.956;2023-06-26T13:22:15;9.30;;;2.27;;
5121;SDS011;2563;52.242;7.956;2023-06-26T13:24:41;4.30;;;2.00;;
5121;SDS011;2563;52.242;7.956;2023-06-26T13:27:06;5.40;;;2.60;;
5121;SDS011;2563;52.242;7.956;2023-06-26T13:29:32;4.80;;;2.60;;
5121;SDS011;2563;52.242;7.956;2023-06-26T13:31:57;3.60;;;1.90;;
5121;SDS011;2563;52.242;7.956;2023-06-26T13:34:23;4.30;;;2.00;;
5121;SDS011;2563;52.242;7.956;2023-06-26T13:36:52;4.33;;;1.67;;
5121;SDS011;2563;52.242;7.956;2023-06-26T13:39:17;6.33;;;2.33;;
5121;SDS011;2563;52.242;7.956;2023-06-26T13:41:44;5.00;;;2.00;;
5121;SDS011;2563;52.242;7.956;2023-06-26T13:44:09;3.40;;;2.03;;
5121;SDS011;2563;52.242;7.956;2023-06-26T13:46:35;8.27;;;2.37;;
5121;SDS011;2563;52.242;7.956;2023-06-26T13:49:00;3.23;;;1.90;;
5121;SDS011;2563;52.242;7.956;2023-06-26T13:51:26;4.50;;;2.30;;
5121;SDS011;2563;52.242;7.956;2023-06-26T13:53:51;2.97;;;1.80;;
5121;SDS011;2563;52.242;7.956;2023-06-26T13:56:16;6.10;;;2.00;;
5121;SDS011;2563;52.242;7.956;2023-06-26T13:58:42;5.20;;;1.60;;
5121;SDS011;2563;52.242;7.956;2023-06-26T14:01:07;3.80;;;1.80;;
5121;SDS011;2563;52.242;7.956;2023-06-26T14:03:33;6.43;;;2.07;;
5121;SDS011;2563;52.242;7.956;2023-06-26T14:05:58;4.93;;;2.17;;
5121;SDS011;2563;52.242;7.956;2023-06-26T14:08:23;3.60;;;2.10;;
5121;SDS011;2563;52.242;7.956;2023-06-26T14:10:49;5.57;;;2.10;;
5121;SDS011;2563;52.242;7.956;2023-06-26T14:13:14;3.30;;;1.80;;
5121;SDS011;2563;52.242;7.956;2023-06-26T14:15:41;5.43;;;1.63;;
5121;SDS011;2563;52.242;7.956;2023-06-26T14:18:07;3.33;;;1.80;;
5121;SDS011;2563;52.242;7.956;2023-06-26T14:20:32;4.13;;;1.90;;
5121;SDS011;2563;52.242;7.956;2023-06-26T14:22:58;6.23;;;1.73;;
5121;SDS011;2563;52.242;7.956;2023-06-26T14:25:24;5.00;;;2.10;;
5121;SDS011;2563;52.242;7.956;2023-06-26T14:27:51;3.30;;;1.77;;
5121;SDS011;2563;52.242;7.956;2023-06-26T14:30:16;3.40;;;2.00;;
5121;SDS011;2563;52.242;7.956;2023-06-26T14:32:42;3.67;;;1.80;;
5121;SDS011;2563;52.242;7.956;2023-06-26T14:35:07;3.33;;;1.80;;
5121;SDS011;2563;52.242;7.956;2023-06-26T14:37:32;3.10;;;1.70;;
5121;SDS011;2563;52.242;7.956;2023-06-26T14:39:58;4.67;;;1.97;;
5121;SDS011;2563;52.242;7.956;2023-06-26T14:42:26;7.10;;;2.90;;
5121;SDS011;2563;52.242;7.956;2023-06-26T14:44:52;3.40;;;1.83;;
5121;SDS011;2563;52.242;7.956;2023-06-26T14:47:17;2.70;;;1.30;;
5121;SDS011;2563;52.242;7.956;2023-06-26T14:49:43;2.07;;;1.27;;
5121;SDS011;2563;52.242;7.956;2023-06-26T14:52:08;4.50;;;1.47;;
5121;SDS011;2563;52.242;7.956;2023-06-26T14:54:34;2.50;;;1.20;;
5121;SDS011;2563;52.242;7.956;2023-06-26T14:57:02;3.93;;;1.70;;
5121;SDS011;2563;52.242;7.956;2023-06-26T14:59:28;3.50;;;1.47;;
5121;SDS011;2563;52.242;7.956;2023-06-26T15:01:53;2.53;;;1.30;;
5121;SDS011;2563;52.242;7.956;2023-06-26T15:04:19;6.40;;;1.90;;
5121;SDS011;2563;52.242;7.956;2023-06-26T15:06:44;7.30;;;1.33;;
5121;SDS011;2563;52.242;7.956;2023-06-26T15:09:09;10.93;;;2.17;;
5121;SDS011;2563;52.242;7.956;2023-06-26T15:11:36;3.60;;;1.90;;
5121;SDS011;2563;52.242;7.956;2023-06-26T15:14:01;3.37;;;1.40;;
5121;SDS011;2563;52.242;7.956;2023-06-26T15:16:27;6.73;;;1.70;;